Time;durP1;ratioP1;P1;durP2;ratioP2;P2;SDS_P1;SDS_P2;PMS_P1;PMS_P2;Temp;Humidity;BMP_temperature;BMP_pressure;BME280_temperature;BME280_humidity;BME280_pressure;Samples;Min_cycle;Max_cycle;Signal;HPM_P1;HPM_P2
2022/04/20 00:01:22;;;;;;;1.30;0.70;;;;;;;;;;6206486;23;20015;-52
2022/04/20 00:03:48;;;;;;;0.93;0.80;;;;;;;;;;6206032;23;20505;-52
2022/04/20 00:06:14;;;;;;;1.50;1.00;;;;;;;;;;6205627;23;20000;-51
2022/04/20 00:08:41;;;;;;;1.50;0.80;;;;;;;;;;6206347;23;20463;-53
2022/04/20 00:11:07;;;;;;;0.70;0.70;;;;;;;;;;6206024;23;20580;-48
2022/04/20 00:13:34;;;;;;;0.95;0.85;;;;;;;;;;6206835;23;20543;-50
2022/04/20 00:16:00;;;;;;;0.77;0.70;;;;;;;;;;6207248;23;20001;-53
2022/04/20 00:18:26;;;;;;;0.95;0.70;;;;;;;;;;6206179;23;20235;-52
2022/04/20 00:20:52;;;;;;;0.80;0.70;;;;;;;;;;6206346;23;20016;-53
2022/04/20 00:23:18;;;;;;;0.82;0.65;;;;;;;;;;6205923;23;20068;-53
2022/04/20 00:25:44;;;;;;;0.60;0.60;;;;;;;;;;6206029;23;20032;-50
2022/04/20 00:28:10;;;;;;;1.45;0.95;;;;;;;;;;6206023;23;19996;-48
2022/04/20 00:30:36;;;;;;;1.20;0.80;;;;;;;;;;6206298;23;20035;-49
2022/04/20 00:33:03;;;;;;;0.73;0.60;;;;;;;;;;6206699;23;20012;-51
2022/04/20 00:35:29;;;;;;;0.73;0.70;;;;;;;;;;6207130;23;20397;-51
2022/04/20 00:37:56;;;;;;;1.25;0.70;;;;;;;;;;6206116;23;20327;-51
2022/04/20 00:40:22;;;;;;;1.45;0.80;;;;;;;;;;6206456;23;20009;-50
2022/04/20 00:42:48;;;;;;;0.88;0.88;;;;;;;;;;6206133;23;20005;-49
2022/04/20 00:45:14;;;;;;;1.13;0.88;;;;;;;;;;6206690;23;20210;-49
2022/04/20 00:47:42;;;;;;;0.95;0.80;;;;;;;;;;6205968;23;20004;-52
2022/04/20 00:50:09;;;;;;;1.33;0.80;;;;;;;;;;6206381;23;20008;-50
2022/04/20 00:52:35;;;;;;;1.23;1.10;;;;;;;;;;6206030;23;20001;-50
2022/04/20 00:55:01;;;;;;;3.20;0.80;;;;;;;;;;6206673;23;20027;-53
2022/04/20 00:57:27;;;;;;;2.17;1.00;;;;;;;;;;6206879;23;20004;-50
2022/04/20 00:59:56;;;;;;;2.03;1.00;;;;;;;;;;6206069;23;20517;-52
2022/04/20 01:02:23;;;;;;;1.10;0.88;;;;;;;;;;6205999;23;20051;-49
2022/04/20 01:04:50;;;;;;;1.60;1.00;;;;;;;;;;6205750;23;20013;-51
2022/04/20 01:07:17;;;;;;;0.90;0.88;;;;;;;;;;6205450;23;20032;-53
2022/04/20 01:09:45;;;;;;;3.50;0.82;;;;;;;;;;6205836;23;20000;-49
2022/04/20 01:12:12;;;;;;;2.15;0.85;;;;;;;;;;6206068;23;20015;-52
2022/04/20 01:14:38;;;;;;;0.80;0.80;;;;;;;;;;6206203;23;20121;-50
2022/04/20 01:17:04;;;;;;;1.70;1.00;;;;;;;;;;6205203;23;20070;-52
2022/04/20 01:19:40;;;;;;;1.45;0.90;;;;;;;;;;6206647;23;20392;-50
2022/04/20 01:22:09;;;;;;;1.63;0.90;;;;;;;;;;6205311;23;20323;-50
2022/04/20 01:24:36;;;;;;;1.20;0.80;;;;;;;;;;6205672;23;19996;-53
2022/04/20 01:27:03;;;;;;;1.27;0.95;;;;;;;;;;6206229;23;20000;-49
2022/04/20 01:29:30;;;;;;;1.60;0.80;;;;;;;;;;6206370;23;20055;-49
2022/04/20 01:31:56;;;;;;;1.20;0.75;;;;;;;;;;6206301;23;20039;-52
2022/04/20 01:34:23;;;;;;;1.92;1.10;;;;;;;;;;6205639;23;20063;-50
2022/04/20 01:36:49;;;;;;;1.45;1.10;;;;;;;;;;6205224;23;20083;-53
2022/04/20 01:39:15;;;;;;;1.40;1.00;;;;;;;;;;6206032;23;20005;-53
2022/04/20 01:41:41;;;;;;;2.65;1.48;;;;;;;;;;6205116;23;20397;-52
2022/04/20 01:44:07;;;;;;;1.02;0.93;;;;;;;;;;6205489;23;20422;-52
2022/04/20 01:46:33;;;;;;;1.77;0.93;;;;;;;;;;6205230;23;20055;-48
2022/04/20 01:49:01;;;;;;;1.77;1.10;;;;;;;;;;6205996;23;20035;-51
2022/04/20 01:54:12;;;;;;;2.03;1.02;;;;;;;;;;6205615;23;20023;-52
2022/04/20 01:56:39;;;;;;;1.48;0.98;;;;;;;;;;6204858;23;20407;-51
2022/04/20 01:59:06;;;;;;;1.10;1.00;;;;;;;;;;6205561;23;20031;-53
2022/04/20 02:04:17;;;;;;;1.30;1.20;;;;;;;;;;6205447;23;20043;-50
2022/04/20 02:06:43;;;;;;;1.92;1.33;;;;;;;;;;6205069;23;20327;-53
2022/04/20 02:09:10;;;;;;;1.20;1.00;;;;;;;;;;6205524;23;20000;-53
2022/04/20 02:11:36;;;;;;;1.25;1.10;;;;;;;;;;6204756;23;20492;-49
2022/04/20 02:14:02;;;;;;;1.60;1.27;;;;;;;;;;6178712;23;20016;-52
2022/04/20 02:16:29;;;;;;;1.83;1.10;;;;;;;;;;6205692;23;20012;-51
2022/04/20 02:18:56;;;;;;;1.75;1.08;;;;;;;;;;6204714;23;20004;-51
2022/04/20 02:21:22;;;;;;;3.22;1.23;;;;;;;;;;6205007;23;20510;-53
2022/04/20 02:23:48;;;;;;;1.52;1.00;;;;;;;;;;6205644;23;20027;-52
2022/04/20 02:26:14;;;;;;;1.02;0.93;;;;;;;;;;6205475;23;20059;-52
2022/04/20 02:28:40;;;;;;;2.00;1.25;;;;;;;;;;6204618;23;20079;-51
2022/04/20 02:31:07;;;;;;;1.27;1.10;;;;;;;;;;6205126;23;20005;-50
2022/04/20 02:33:33;;;;;;;2.08;1.35;;;;;;;;;;6204869;23;20012;-51
2022/04/20 02:35:59;;;;;;;1.55;1.08;;;;;;;;;;6206020;23;20012;-50
2022/04/20 02:38:27;;;;;;;1.58;1.00;;;;;;;;;;6204668;23;20331;-52
2022/04/20 02:40:53;;;;;;;1.90;1.10;;;;;;;;;;6205363;23;20318;-53
2022/04/20 02:43:20;;;;;;;1.80;1.10;;;;;;;;;;6205335;23;20428;-52
2022/04/20 02:45:46;;;;;;;1.45;1.00;;;;;;;;;;6205094;23;20001;-52
2022/04/20 02:48:12;;;;;;;1.13;0.98;;;;;;;;;;6204346;23;20506;-50
2022/04/20 02:50:38;;;;;;;1.17;0.90;;;;;;;;;;6204840;23;20009;-51
2022/04/20 02:53:04;;;;;;;1.13;0.90;;;;;;;;;;6205243;23;20107;-52
2022/04/20 02:55:31;;;;;;;1.45;1.00;;;;;;;;;;6178582;23;20004;-52
2022/04/20 02:57:58;;;;;;;1.25;1.00;;;;;;;;;;6205612;23;20469;-49
2022/04/20 03:00:24;;;;;;;1.70;1.27;;;;;;;;;;6204847;23;20032;-52
2022/04/20 03:02:51;;;;;;;2.10;1.25;;;;;;;;;;6204338;23;20099;-48
2022/04/20 03:05:18;;;;;;;1.67;1.27;;;;;;;;;;6204718;23;20039;-53
2022/04/20 03:07:44;;;;;;;1.67;1.25;;;;;;;;;;6204784;23;20005;-50
2022/04/20 03:10:10;;;;;;;2.28;1.17;;;;;;;;;;6205287;23;20000;-50
2022/04/20 03:12:36;;;;;;;2.50;1.30;;;;;;;;;;6204884;23;20005;-53
2022/04/20 03:15:03;;;;;;;1.92;1.20;;;;;;;;;;6204126;23;20088;-53
2022/04/20 03:17:29;;;;;;;1.58;1.00;;;;;;;;;;6205502;23;20009;-52
2022/04/20 03:19:55;;;;;;;1.10;1.00;;;;;;;;;;6205091;23;20422;-52
2022/04/20 03:22:22;;;;;;;1.48;1.00;;;;;;;;;;6204706;23;20423;-53
2022/04/20 03:24:49;;;;;;;1.35;1.00;;;;;;;;;;6204608;23;20000;-51
2022/04/20 03:27:16;;;;;;;1.67;1.05;;;;;;;;;;6205448;23;20092;-52
2022/04/20 03:29:43;;;;;;;1.65;1.10;;;;;;;;;;6204580;23;20505;-53
2022/04/20 03:32:10;;;;;;;1.80;1.05;;;;;;;;;;6205129;23;20080;-54
2022/04/20 03:34:36;;;;;;;2.03;0.93;;;;;;;;;;6204332;23;20035;-53
2022/04/20 03:37:02;;;;;;;1.48;0.90;;;;;;;;;;6205416;23;20075;-52
2022/04/20 03:39:28;;;;;;;1.45;0.88;;;;;;;;;;6205672;23;20367;-53
2022/04/20 03:41:54;;;;;;;2.00;1.17;;;;;;;;;;6204741;23;20011;-52
2022/04/20 03:44:20;;;;;;;1.77;1.00;;;;;;;;;;6203382;23;20001;-52
2022/04/20 03:46:47;;;;;;;1.33;1.00;;;;;;;;;;6204883;23;20050;-52
2022/04/20 03:49:13;;;;;;;1.75;1.00;;;;;;;;;;6205287;23;20001;-52
2022/04/20 03:51:39;;;;;;;1.20;1.00;;;;;;;;;;6204390;23;20544;-52
2022/04/20 03:54:05;;;;;;;1.40;1.05;;;;;;;;;;6204669;23;20005;-51
2022/04/20 03:57:03;;;;;;;0.80;0.80;;;;;;;;;;6177834;23;20011;-53
2022/04/20 03:59:18;;;;;;;1.65;1.17;;;;;;;;;;6205640;23;20067;-52
2022/04/20 04:01:45;;;;;;;0.70;0.70;;;;;;;;;;6206185;23;20587;-50
2022/04/20 04:04:11;;;;;;;1.38;0.95;;;;;;;;;;6206143;23;20407;-50
2022/04/20 04:06:38;;;;;;;0.90;0.88;;;;;;;;;;6206722;23;20324;-50
2022/04/20 04:09:04;;;;;;;1.45;0.88;;;;;;;;;;6207024;23;20000;-52
2022/04/20 04:11:31;;;;;;;1.67;0.85;;;;;;;;;;6206879;23;20005;-53
2022/04/20 04:13:57;;;;;;;1.20;0.93;;;;;;;;;;6206851;23;20004;-51
2022/04/20 04:16:24;;;;;;;0.70;0.70;;;;;;;;;;6206202;23;20005;-51
2022/04/20 04:18:51;;;;;;;1.05;0.90;;;;;;;;;;6206181;23;20008;-48
2022/04/20 04:21:18;;;;;;;1.30;0.90;;;;;;;;;;6206392;23;20438;-53
2022/04/20 04:23:43;;;;;;;0.95;0.80;;;;;;;;;;6206404;23;20001;-52
2022/04/20 04:26:10;;;;;;;1.58;0.90;;;;;;;;;;6205983;23;20075;-51
2022/04/20 04:28:36;;;;;;;2.33;1.05;;;;;;;;;;6206052;23;20000;-52
2022/04/20 04:31:02;;;;;;;1.77;1.38;;;;;;;;;;6205817;23;20050;-53
2022/04/20 04:33:28;;;;;;;1.20;0.98;;;;;;;;;;6206888;23;20090;-53
2022/04/20 04:35:54;;;;;;;1.40;0.82;;;;;;;;;;6207240;23;20498;-51
2022/04/20 04:38:20;;;;;;;0.93;0.80;;;;;;;;;;6207491;23;20004;-52
2022/04/20 04:40:46;;;;;;;1.15;0.90;;;;;;;;;;6207617;23;20005;-53
2022/04/20 04:43:13;;;;;;;1.45;0.88;;;;;;;;;;6207319;23;20398;-52
2022/04/20 04:48:41;;;;;;;1.88;0.88;;;;;;;;;;6139610;23;20446;-52
2022/04/20 04:51:09;;;;;;;1.02;0.90;;;;;;;;;;6207492;23;20351;-53
2022/04/20 04:53:35;;;;;;;1.20;0.80;;;;;;;;;;6207511;23;20011;-53
2022/04/20 04:56:01;;;;;;;0.70;0.70;;;;;;;;;;6207225;23;20004;-53
2022/04/20 04:58:27;;;;;;;1.15;0.90;;;;;;;;;;6207893;23;20005;-59
2022/04/20 05:00:53;;;;;;;0.70;0.70;;;;;;;;;;6207606;23;20004;-59
2022/04/20 05:03:19;;;;;;;2.22;1.00;;;;;;;;;;6207870;23;20009;-58
2022/04/20 05:05:45;;;;;;;0.95;0.77;;;;;;;;;;6207042;23;20446;-59
2022/04/20 05:08:11;;;;;;;1.08;0.73;;;;;;;;;;6207403;23;20005;-58
2022/04/20 05:10:38;;;;;;;0.77;0.60;;;;;;;;;;6207112;23;20481;-59
2022/04/20 05:13:04;;;;;;;1.00;0.90;;;;;;;;;;6207438;23;20399;-59
2022/04/20 05:15:31;;;;;;;0.68;0.68;;;;;;;;;;6205917;23;20357;-59
2022/04/20 05:17:57;;;;;;;1.30;0.85;;;;;;;;;;6206475;23;20039;-59
2022/04/20 05:20:23;;;;;;;1.38;0.95;;;;;;;;;;6205573;23;20501;-58
2022/04/20 05:22:50;;;;;;;1.75;0.73;;;;;;;;;;6205198;23;20080;-59
2022/04/20 05:25:16;;;;;;;1.65;0.80;;;;;;;;;;6206221;23;20007;-59
2022/04/20 05:27:43;;;;;;;2.58;1.38;;;;;;;;;;6205693;23;20011;-59
2022/04/20 05:30:10;;;;;;;2.00;1.50;;;;;;;;;;6205290;23;20020;-59
2022/04/20 05:32:36;;;;;;;2.03;1.40;;;;;;;;;;6205092;23;20035;-59
2022/04/20 05:35:02;;;;;;;2.08;1.52;;;;;;;;;;6206007;23;20001;-59
2022/04/20 05:42:59;;;;;;;;;;;;;;;;;;6206508;23;20126;-59
2022/04/20 05:45:25;;;;;;;3.30;2.55;;;;;;;;;;6204884;23;20368;-59
2022/04/20 05:47:52;;;;;;;2.72;2.00;;;;;;;;;;6205412;23;20019;-59
2022/04/20 05:50:19;;;;;;;2.50;1.73;;;;;;;;;;6205328;23;20342;-59
2022/04/20 05:52:46;;;;;;;2.05;1.55;;;;;;;;;;6205302;23;20005;-59
2022/04/20 05:55:12;;;;;;;2.05;1.17;;;;;;;;;;6205251;23;20478;-59
2022/04/20 05:57:38;;;;;;;1.17;1.08;;;;;;;;;;6205428;23;20000;-59
2022/04/20 06:00:05;;;;;;;1.10;0.98;;;;;;;;;;6204967;23;20007;-60
2022/04/20 06:02:34;;;;;;;1.30;1.10;;;;;;;;;;6204873;23;20012;-59
2022/04/20 06:05:00;;;;;;;1.27;1.00;;;;;;;;;;6177077;23;20485;-58
2022/04/20 06:07:29;;;;;;;1.55;1.00;;;;;;;;;;6205434;23;20080;-59
2022/04/20 06:09:56;;;;;;;2.88;1.20;;;;;;;;;;6204870;23;20054;-59
2022/04/20 06:12:22;;;;;;;2.35;1.10;;;;;;;;;;6204657;23;20036;-59
2022/04/20 06:14:48;;;;;;;1.13;0.93;;;;;;;;;;6205671;23;20010;-59
2022/04/20 06:17:14;;;;;;;1.20;0.90;;;;;;;;;;6205286;23;20083;-59
2022/04/20 06:19:40;;;;;;;2.83;1.00;;;;;;;;;;6205592;23;20151;-59
2022/04/20 06:22:08;;;;;;;1.38;1.20;;;;;;;;;;6205315;23;20015;-59
2022/04/20 06:24:35;;;;;;;1.73;1.00;;;;;;;;;;6205275;23;19997;-59
2022/04/20 06:27:02;;;;;;;1.52;1.15;;;;;;;;;;6205407;23;20004;-59
2022/04/20 06:29:28;;;;;;;1.85;1.40;;;;;;;;;;6204622;23;20083;-59
2022/04/20 06:31:55;;;;;;;1.58;1.10;;;;;;;;;;6205220;23;20233;-59
2022/04/20 06:34:21;;;;;;;1.65;1.10;;;;;;;;;;6205214;23;20004;-59
2022/04/20 06:36:47;;;;;;;1.70;1.10;;;;;;;;;;6205415;23;20004;-59
2022/04/20 06:39:13;;;;;;;1.58;1.05;;;;;;;;;;6205253;23;20484;-59
2022/04/20 06:41:40;;;;;;;1.45;0.90;;;;;;;;;;6204810;23;20005;-59
2022/04/20 06:44:06;;;;;;;1.95;1.20;;;;;;;;;;6205264;23;20004;-59
2022/04/20 06:46:33;;;;;;;1.15;1.00;;;;;;;;;;6205475;23;20011;-59
2022/04/20 06:48:59;;;;;;;1.45;0.85;;;;;;;;;;6205205;23;20004;-59
2022/04/20 06:51:26;;;;;;;1.88;1.10;;;;;;;;;;6204552;23;20066;-59
2022/04/20 06:59:24;;;;;;;1.25;1.00;;;;;;;;;;6206316;23;20016;-59
2022/04/20 07:01:51;;;;;;;1.13;1.00;;;;;;;;;;6206133;23;20480;-59
2022/04/20 07:04:17;;;;;;;1.13;1.02;;;;;;;;;;6206465;23;20019;-59
2022/04/20 07:06:43;;;;;;;1.98;1.02;;;;;;;;;;6205378;23;20004;-60
2022/04/20 07:09:09;;;;;;;1.10;0.80;;;;;;;;;;6206342;23;20363;-60
2022/04/20 07:11:35;;;;;;;0.70;0.70;;;;;;;;;;6207216;23;20814;-60
2022/04/20 07:14:01;;;;;;;2.15;1.40;;;;;;;;;;6206629;23;20445;-60
2022/04/20 07:16:28;;;;;;;3.85;1.27;;;;;;;;;;6206568;23;20016;-60
2022/04/20 07:18:54;;;;;;;1.30;1.20;;;;;;;;;;6206841;23;20005;-60
2022/04/20 07:21:20;;;;;;;1.45;0.95;;;;;;;;;;6206674;23;20013;-60
2022/04/20 07:23:46;;;;;;;1.20;1.00;;;;;;;;;;6206746;23;20528;-60
2022/04/20 07:26:13;;;;;;;1.50;1.00;;;;;;;;;;6207042;23;20357;-60
2022/04/20 07:28:39;;;;;;;0.93;0.85;;;;;;;;;;6206541;23;20000;-60
2022/04/20 07:31:05;;;;;;;2.05;1.50;;;;;;;;;;6207818;23;19997;-60
2022/04/20 07:33:31;;;;;;;2.15;1.20;;;;;;;;;;6206140;23;20020;-60
2022/04/20 07:35:57;;;;;;;1.42;1.13;;;;;;;;;;6208867;23;20004;-60
2022/04/20 07:38:25;;;;;;;1.85;1.27;;;;;;;;;;6208149;23;20000;-60
2022/04/20 07:40:52;;;;;;;2.08;1.38;;;;;;;;;;6207998;23;20027;-59
2022/04/20 07:43:18;;;;;;;2.33;1.30;;;;;;;;;;6208151;23;20007;-60
2022/04/20 07:45:44;;;;;;;1.42;1.13;;;;;;;;;;6208526;23;20342;-60
2022/04/20 07:48:10;;;;;;;2.22;1.40;;;;;;;;;;6182143;23;20582;-60
2022/04/20 07:50:38;;;;;;;3.30;1.45;;;;;;;;;;6209512;23;20009;-60
2022/04/20 07:53:06;;;;;;;2.53;1.40;;;;;;;;;;6209310;23;20080;-60
2022/04/20 07:55:33;;;;;;;1.63;1.25;;;;;;;;;;6209273;23;20087;-60
2022/04/20 07:58:00;;;;;;;2.28;1.15;;;;;;;;;;6208160;23;20442;-60
2022/04/20 08:00:27;;;;;;;1.15;0.82;;;;;;;;;;6208470;23;20011;-60
2022/04/20 08:03:11;;;;;;;3.42;1.23;;;;;;;;;;6205954;23;20391;-60
2022/04/20 08:05:38;;;;;;;1.83;1.10;;;;;;;;;;6208862;23;20015;-60
2022/04/20 08:08:04;;;;;;;2.05;1.00;;;;;;;;;;6207383;23;20007;-60
2022/04/20 08:10:30;;;;;;;2.50;1.42;;;;;;;;;;6208177;23;20607;-60
2022/04/20 08:12:56;;;;;;;3.15;1.13;;;;;;;;;;6208047;23;20059;-60
2022/04/20 08:15:22;;;;;;;1.38;1.05;;;;;;;;;;6208228;23;20469;-60
2022/04/20 08:17:48;;;;;;;1.20;0.90;;;;;;;;;;6208514;23;20072;-60
2022/04/20 08:20:15;;;;;;;1.38;0.70;;;;;;;;;;6208700;23;20035;-60
2022/04/20 08:22:42;;;;;;;1.67;1.00;;;;;;;;;;6207268;23;20015;-60
2022/04/20 08:25:09;;;;;;;0.95;0.90;;;;;;;;;;6208244;23;20469;-61
2022/04/20 08:27:35;;;;;;;1.52;0.90;;;;;;;;;;6207956;23;19996;-60
2022/04/20 08:30:01;;;;;;;2.30;1.10;;;;;;;;;;6206344;23;20028;-60
2022/04/20 08:32:27;;;;;;;1.08;0.80;;;;;;;;;;6180199;23;20339;-61
2022/04/20 08:34:53;;;;;;;1.00;0.80;;;;;;;;;;6208048;23;20011;-60
2022/04/20 08:37:19;;;;;;;1.83;1.00;;;;;;;;;;6208292;23;20009;-61
2022/04/20 08:39:45;;;;;;;2.38;0.95;;;;;;;;;;6207506;23;20358;-60
2022/04/20 08:42:12;;;;;;;0.82;0.70;;;;;;;;;;6206355;23;20441;-60
2022/04/20 08:44:42;;;;;;;0.70;0.70;;;;;;;;;;6205808;23;19997;-60
2022/04/20 08:47:12;;;;;;;0.90;0.70;;;;;;;;;;6206280;23;20549;-59
2022/04/20 08:49:44;;;;;;;1.40;1.10;;;;;;;;;;6206066;23;20004;-60
2022/04/20 08:54:56;;;;;;;0.75;0.75;;;;;;;;;;6206421;23;20369;-60
2022/04/20 08:57:27;;;;;;;0.90;0.75;;;;;;;;;;6205964;23;20015;-60
2022/04/20 08:59:54;;;;;;;0.90;0.63;;;;;;;;;;6206161;23;20008;-60
2022/04/20 09:02:20;;;;;;;2.00;0.60;;;;;;;;;;6206213;23;20019;-60
2022/04/20 09:04:47;;;;;;;0.60;0.60;;;;;;;;;;6207016;23;20130;-60
2022/04/20 09:07:15;;;;;;;0.75;0.50;;;;;;;;;;6206016;23;20079;-60
2022/04/20 09:09:41;;;;;;;0.50;0.50;;;;;;;;;;6179023;23;20024;-60
2022/04/20 09:12:11;;;;;;;0.50;0.50;;;;;;;;;;6205843;23;20020;-60
2022/04/20 09:14:38;;;;;;;0.43;0.40;;;;;;;;;;6205862;23;20009;-60
2022/04/20 09:17:04;;;;;;;0.63;0.63;;;;;;;;;;6206242;23;20005;-60
2022/04/20 09:19:30;;;;;;;0.50;0.50;;;;;;;;;;6205632;23;20008;-60
2022/04/20 09:21:58;;;;;;;0.47;0.45;;;;;;;;;;6206056;23;20011;-60
2022/04/20 09:24:25;;;;;;;0.63;0.60;;;;;;;;;;6205905;23;20351;-60
2022/04/20 09:26:55;;;;;;;0.63;0.63;;;;;;;;;;6206238;23;20007;-60
2022/04/20 09:29:21;;;;;;;0.50;0.50;;;;;;;;;;6206033;23;20509;-60
2022/04/20 09:31:48;;;;;;;0.45;0.45;;;;;;;;;;6206567;23;20004;-60
2022/04/20 09:34:30;;;;;;;0.50;0.50;;;;;;;;;;6205995;23;20035;-60
2022/04/20 09:36:57;;;;;;;0.47;0.47;;;;;;;;;;6205896;23;20001;-60
2022/04/20 09:39:25;;;;;;;0.80;0.57;;;;;;;;;;6205738;23;20005;-60
2022/04/20 09:42:02;;;;;;;2.15;1.02;;;;;;;;;;6205334;23;20357;-60
2022/04/20 09:44:31;;;;;;;0.85;0.80;;;;;;;;;;6204506;23;20362;-59
2022/04/20 09:49:56;;;;;;;0.70;0.50;;;;;;;;;;6205483;23;20019;-60
2022/04/20 09:52:23;;;;;;;0.70;0.60;;;;;;;;;;6205627;23;20058;-60
2022/04/20 09:54:57;;;;;;;0.70;0.50;;;;;;;;;;6208623;23;20429;-60
2022/04/20 09:57:23;;;;;;;0.57;0.57;;;;;;;;;;6206273;23;20454;-60
2022/04/20 09:59:59;;;;;;;0.95;0.60;;;;;;;;;;6206524;23;20028;-60
2022/04/20 10:02:30;;;;;;;0.60;0.60;;;;;;;;;;6203430;23;20001;-60
2022/04/20 10:04:57;;;;;;;0.98;0.50;;;;;;;;;;6205928;23;20008;-60
2022/04/20 10:07:24;;;;;;;0.73;0.50;;;;;;;;;;6202602;23;20001;-60
2022/04/20 10:09:50;;;;;;;0.90;0.68;;;;;;;;;;6207060;23;20001;-60
2022/04/20 10:12:17;;;;;;;0.32;0.32;;;;;;;;;;6207346;23;20032;-61
2022/04/20 10:17:28;;;;;;;0.82;0.60;;;;;;;;;;6205052;23;20116;-60
2022/04/20 10:19:54;;;;;;;0.57;0.50;;;;;;;;;;6180175;23;20009;-61
2022/04/20 10:22:21;;;;;;;0.65;0.60;;;;;;;;;;6206584;23;20009;-60
2022/04/20 10:24:53;;;;;;;0.93;0.60;;;;;;;;;;6207727;23;20012;-61
2022/04/20 10:27:23;;;;;;;0.60;0.60;;;;;;;;;;6207715;23;20030;-60
2022/04/20 10:30:04;;;;;;;0.50;0.50;;;;;;;;;;6207456;23;20001;-58
2022/04/20 10:32:38;;;;;;;0.70;0.70;;;;;;;;;;6206279;23;20008;-58
2022/04/20 10:35:05;;;;;;;;;;;;;;;;;;6207576;23;20001;-58
2022/04/20 10:37:31;;;;;;;0.50;0.50;;;;;;;;;;6206808;23;20325;-58
2022/04/20 10:40:16;;;;;;;0.88;0.65;;;;;;;;;;6206618;23;20009;-59
2022/04/20 10:42:44;;;;;;;1.38;0.80;;;;;;;;;;6206477;23;20080;-59
2022/04/20 10:45:12;;;;;;;0.52;0.50;;;;;;;;;;6206860;23;20047;-59
2022/04/20 10:47:42;;;;;;;0.40;0.40;;;;;;;;;;6206609;23;20308;-59
2022/04/20 10:50:21;;;;;;;0.68;0.60;;;;;;;;;;6207137;23;20009;-58
2022/04/20 10:52:57;;;;;;;0.98;0.65;;;;;;;;;;6207391;23;20008;-58
2022/04/20 10:55:24;;;;;;;1.63;0.80;;;;;;;;;;6206333;23;20019;-58
2022/04/20 10:57:54;;;;;;;1.80;0.90;;;;;;;;;;6207895;23;20383;-59
2022/04/20 15:02:12;;;;;;;1.30;1.20;;;;;;;;;;6195120;23;20031;-52
2022/04/20 15:04:38;;;;;;;1.88;1.30;;;;;;;;;;6207296;23;20058;-52
2022/04/20 15:07:04;;;;;;;1.30;1.20;;;;;;;;;;6209038;23;20433;-52
2022/04/20 15:09:30;;;;;;;2.95;1.58;;;;;;;;;;6209193;23;20634;-52
2022/04/20 15:11:59;;;;;;;1.65;1.17;;;;;;;;;;6209041;23;20004;-50
2022/04/20 15:14:26;;;;;;;1.58;1.10;;;;;;;;;;6208740;23;20055;-50
2022/04/20 15:16:53;;;;;;;2.60;1.30;;;;;;;;;;6207461;23;20015;-48
2022/04/20 15:19:19;;;;;;;1.27;1.17;;;;;;;;;;6206627;23;20001;-50
2022/04/20 15:21:47;;;;;;;1.48;1.20;;;;;;;;;;6204037;23;20075;-51
2022/04/20 15:24:13;;;;;;;1.30;1.08;;;;;;;;;;6205549;23;20004;-50
2022/04/20 15:26:39;;;;;;;1.58;1.20;;;;;;;;;;6208082;23;20338;-50
2022/04/20 15:29:05;;;;;;;1.75;1.02;;;;;;;;;;6209176;23;20383;-51
2022/04/20 15:31:32;;;;;;;2.05;1.20;;;;;;;;;;6209158;23;20051;-52
2022/04/20 15:33:58;;;;;;;1.25;1.10;;;;;;;;;;6208984;23;19996;-52
2022/04/20 15:36:25;;;;;;;0.85;0.85;;;;;;;;;;6205615;23;20062;-52
2022/04/20 15:38:53;;;;;;;1.00;0.90;;;;;;;;;;6208540;23;20075;-51
2022/04/20 15:41:20;;;;;;;2.50;1.10;;;;;;;;;;6209763;23;19996;-50
2022/04/20 15:43:47;;;;;;;1.35;0.90;;;;;;;;;;6209627;23;20009;-49
2022/04/20 15:46:13;;;;;;;1.45;1.00;;;;;;;;;;6209198;23;20036;-51
2022/04/20 15:48:39;;;;;;;2.47;1.38;;;;;;;;;;6209501;23;20477;-50
2022/04/20 15:51:06;;;;;;;1.20;1.02;;;;;;;;;;6209206;23;20011;-50
2022/04/20 15:53:33;;;;;;;1.90;1.20;;;;;;;;;;6208869;23;20004;-52
2022/04/20 16:01:28;;;;;;;1.60;1.10;;;;;;;;;;6209645;23;20031;-47
2022/04/20 16:03:54;;;;;;;1.80;0.90;;;;;;;;;;6207170;23;20000;-52
2022/04/20 16:06:21;;;;;;;0.70;0.70;;;;;;;;;;6210089;23;20005;-51
2022/04/20 16:08:47;;;;;;;1.05;0.77;;;;;;;;;;6209703;23;20007;-52
2022/04/20 16:11:14;;;;;;;0.80;0.80;;;;;;;;;;6209316;23;20004;-52
2022/04/20 16:13:40;;;;;;;1.42;0.93;;;;;;;;;;6210760;23;20000;-51
2022/04/20 16:16:07;;;;;;;1.08;0.90;;;;;;;;;;6211489;23;20429;-52
2022/04/20 16:18:33;;;;;;;1.60;1.40;;;;;;;;;;6211411;23;19996;-51
2022/04/20 16:21:01;;;;;;;1.35;1.10;;;;;;;;;;6211690;23;20346;-48
2022/04/20 16:23:27;;;;;;;2.58;1.60;;;;;;;;;;6210322;23;20009;-49
2022/04/20 16:25:53;;;;;;;1.63;1.20;;;;;;;;;;6211940;23;20001;-52
2022/04/20 16:28:19;;;;;;;1.58;1.00;;;;;;;;;;6211720;23;20425;-49
2022/04/20 16:30:45;;;;;;;1.58;1.23;;;;;;;;;;6210150;23;20015;-49
2022/04/20 16:33:18;;;;;;;1.10;1.00;;;;;;;;;;6211127;23;20402;-51
2022/04/20 16:35:46;;;;;;;1.17;1.00;;;;;;;;;;6211553;23;20024;-51
2022/04/20 16:38:13;;;;;;;2.92;0.90;;;;;;;;;;6211377;23;20015;-51
2022/04/20 16:40:39;;;;;;;2.30;1.20;;;;;;;;;;6211731;23;20342;-50
2022/04/20 16:43:05;;;;;;;1.10;1.00;;;;;;;;;;6211361;23;20019;-49
2022/04/20 16:45:32;;;;;;;2.50;1.38;;;;;;;;;;6211088;23;20008;-51
2022/04/20 16:47:58;;;;;;;1.40;1.30;;;;;;;;;;6209996;23;20001;-51
2022/04/20 16:50:25;;;;;;;1.67;1.30;;;;;;;;;;6208839;23;20492;-51
2022/04/20 16:52:51;;;;;;;2.13;1.38;;;;;;;;;;6210541;23;20008;-50
2022/04/20 16:55:17;;;;;;;2.58;1.70;;;;;;;;;;6211505;23;20054;-51
2022/04/20 16:57:43;;;;;;;1.75;1.60;;;;;;;;;;6211535;23;20343;-51
2022/04/20 17:00:19;;;;;;;1.63;1.52;;;;;;;;;;6208844;23;20398;-51
2022/04/20 17:02:46;;;;;;;2.25;1.63;;;;;;;;;;6208598;23;20512;-51
2022/04/20 17:05:12;;;;;;;1.73;1.40;;;;;;;;;;6210720;23;20051;-49
2022/04/20 17:07:39;;;;;;;2.15;1.25;;;;;;;;;;6210093;23;20001;-51
2022/04/20 17:10:05;;;;;;;1.50;1.40;;;;;;;;;;6209356;23;20527;-48
2022/04/20 17:12:34;;;;;;;1.58;1.45;;;;;;;;;;6210482;23;20008;-47
2022/04/20 17:15:01;;;;;;;2.00;1.60;;;;;;;;;;6208927;23;20004;-51
2022/04/20 17:17:27;;;;;;;1.55;1.42;;;;;;;;;;6210647;23;20055;-51
2022/04/20 17:19:53;;;;;;;1.77;1.27;;;;;;;;;;6210612;23;20460;-50
2022/04/20 17:27:49;;;;;;;2.42;1.90;;;;;;;;;;6210916;23;20062;-48
2022/04/20 17:30:15;;;;;;;5.03;1.98;;;;;;;;;;6210871;23;20008;-48
2022/04/20 17:32:42;;;;;;;2.95;2.20;;;;;;;;;;6210574;23;20008;-50
2022/04/20 17:37:53;;;;;;;2.55;1.50;;;;;;;;;;6210328;23;20020;-51
2022/04/20 17:40:19;;;;;;;2.22;1.45;;;;;;;;;;6208772;23;20353;-50
2022/04/20 17:42:51;;;;;;;1.98;1.75;;;;;;;;;;6210667;23;20020;-48
2022/04/20 17:45:17;;;;;;;2.88;1.77;;;;;;;;;;6210900;23;20027;-48
2022/04/20 17:47:47;;;;;;;2.85;1.40;;;;;;;;;;6209651;23;20333;-48
2022/04/20 17:50:14;;;;;;;1.60;1.40;;;;;;;;;;6210235;23;20000;-51
2022/04/20 17:52:40;;;;;;;2.50;1.63;;;;;;;;;;6207537;23;20001;-52
2022/04/20 17:55:07;;;;;;;2.38;1.73;;;;;;;;;;6209668;23;20092;-49
2022/04/20 17:57:33;;;;;;;2.25;1.80;;;;;;;;;;6209430;23;20049;-48
2022/04/20 17:59:59;;;;;;;1.77;1.63;;;;;;;;;;6208587;23;20508;-51
2022/04/20 18:02:26;;;;;;;2.40;1.70;;;;;;;;;;6209252;23;20662;-50
2022/04/20 18:04:54;;;;;;;2.88;2.05;;;;;;;;;;6207777;23;20005;-49
2022/04/20 18:07:20;;;;;;;3.60;2.50;;;;;;;;;;6208371;23;20086;-51
2022/04/20 18:09:48;;;;;;;3.28;2.35;;;;;;;;;;6208687;23;20583;-49
2022/04/20 18:12:15;;;;;;;2.28;2.03;;;;;;;;;;6209205;23;20000;-50
2022/04/20 18:14:41;;;;;;;2.47;1.83;;;;;;;;;;6208046;23;20088;-51
2022/04/20 18:17:08;;;;;;;2.47;1.80;;;;;;;;;;6209841;23;20004;-50
2022/04/20 18:19:35;;;;;;;3.28;1.98;;;;;;;;;;6209532;23;20357;-51
2022/04/20 18:22:02;;;;;;;2.17;1.70;;;;;;;;;;6209551;23;20064;-51
2022/04/20 18:24:28;;;;;;;2.25;1.88;;;;;;;;;;6208798;23;20067;-50
2022/04/20 18:26:54;;;;;;;4.53;1.90;;;;;;;;;;6207869;23;20323;-52
2022/04/20 18:29:20;;;;;;;2.45;2.05;;;;;;;;;;6209959;23;20012;-48
2022/04/20 18:31:46;;;;;;;2.10;1.90;;;;;;;;;;6209162;23;20322;-49
2022/04/20 18:34:12;;;;;;;3.35;2.08;;;;;;;;;;6209604;23;20079;-48
2022/04/20 18:36:40;;;;;;;3.25;2.35;;;;;;;;;;6209689;23;20303;-50
2022/04/20 18:39:06;;;;;;;2.50;2.30;;;;;;;;;;6209810;23;20009;-51
2022/04/20 18:41:33;;;;;;;2.63;2.22;;;;;;;;;;6209692;23;20015;-50
2022/04/20 18:44:00;;;;;;;2.70;2.08;;;;;;;;;;6209694;23;20008;-50
2022/04/20 18:46:26;;;;;;;3.22;2.15;;;;;;;;;;6207199;23;20007;-51
2022/04/20 18:48:53;;;;;;;4.10;2.38;;;;;;;;;;6207758;23;20000;-51
2022/04/20 18:51:20;;;;;;;3.30;2.45;;;;;;;;;;6209987;23;20007;-51
2022/04/20 18:59:16;;;;;;;2.55;2.35;;;;;;;;;;6208764;23;20047;-48
2022/04/20 19:01:42;;;;;;;2.25;1.75;;;;;;;;;;6207193;23;20452;-48
2022/04/20 19:06:53;;;;;;;2.50;1.70;;;;;;;;;;6209109;23;20012;-50
2022/04/20 19:09:20;;;;;;;2.60;1.70;;;;;;;;;;6209686;23;20052;-49
2022/04/20 19:11:46;;;;;;;3.13;2.00;;;;;;;;;;6210119;23;20100;-49
2022/04/20 19:14:13;;;;;;;2.38;1.85;;;;;;;;;;6206957;23;20013;-51
2022/04/20 19:16:40;;;;;;;2.72;1.85;;;;;;;;;;6209655;23;20008;-50
2022/04/20 19:19:07;;;;;;;2.45;2.10;;;;;;;;;;6209756;23;20024;-48
2022/04/20 19:21:34;;;;;;;3.70;2.30;;;;;;;;;;6209769;23;20015;-51
2022/04/20 19:24:00;;;;;;;2.88;2.17;;;;;;;;;;6210026;23;20000;-51
2022/04/20 19:26:26;;;;;;;2.70;2.03;;;;;;;;;;6206981;23;20027;-49
2022/04/20 19:28:52;;;;;;;3.42;2.22;;;;;;;;;;6208370;23;20075;-48
2022/04/20 19:31:18;;;;;;;3.17;2.38;;;;;;;;;;6211961;23;20135;-48
2022/04/20 19:33:45;;;;;;;2.83;2.45;;;;;;;;;;6211372;23;20004;-48